sensor_id;sensor_type;location;lat;lon;timestamp;P1;durP1;ratioP1;P2;durP2;ratioP2
7703;SDS011;3894;49.700;10.770;2023-07-16T00:01:57;7.90;;;4.63;;
7703;SDS011;3894;49.700;10.770;2023-07-16T00:04:22;9.02;;;4.78;;
7703;SDS011;3894;49.700;10.770;2023-07-16T00:06:48;12.93;;;4.60;;
7703;SDS011;3894;49.700;10.770;2023-07-16T00:09:14;9.07;;;4.18;;
7703;SDS011;3894;49.700;10.770;2023-07-16T00:11:40;10.70;;;4.85;;
7703;SDS011;3894;49.700;10.770;2023-07-16T00:14:05;9.60;;;4.97;;
7703;SDS011;3894;49.700;10.770;2023-07-16T00:16:31;9.70;;;4.60;;
7703;SDS011;3894;49.700;10.770;2023-07-16T00:18:56;8.55;;;4.90;;
7703;SDS011;3894;49.700;10.770;2023-07-16T00:21:23;10.20;;;5.10;;
7703;SDS011;3894;49.700;10.770;2023-07-16T00:23:50;9.73;;;5.13;;
7703;SDS011;3894;49.700;10.770;2023-07-16T00:26:16;12.18;;;5.07;;
7703;SDS011;3894;49.700;10.770;2023-07-16T00:28:41;9.23;;;4.53;;
7703;SDS011;3894;49.700;10.770;2023-07-16T00:31:07;12.10;;;4.97;;
7703;SDS011;3894;49.700;10.770;2023-07-16T00:33:32;9.60;;;5.03;;
7703;SDS011;3894;49.700;10.770;2023-07-16T00:35:58;10.00;;;4.70;;
7703;SDS011;3894;49.700;10.770;2023-07-16T00:38:24;9.52;;;4.43;;
7703;SDS011;3894;49.700;10.770;2023-07-16T00:40:49;10.27;;;5.70;;
7703;SDS011;3894;49.700;10.770;2023-07-16T00:43:15;11.10;;;5.53;;
7703;SDS011;3894;49.700;10.770;2023-07-16T00:45:41;8.43;;;4.20;;
7703;SDS011;3894;49.700;10.770;2023-07-16T00:48:09;10.63;;;5.45;;
7703;SDS011;3894;49.700;10.770;2023-07-16T00:50:36;8.52;;;4.00;;
7703;SDS011;3894;49.700;10.770;2023-07-16T00:53:04;8.88;;;4.10;;
7703;SDS011;3894;49.700;10.770;2023-07-16T00:55:32;7.68;;;2.83;;
7703;SDS011;3894;49.700;10.770;2023-07-16T00:58:00;5.82;;;2.63;;
7703;SDS011;3894;49.700;10.770;2023-07-16T01:00:30;5.82;;;2.13;;
7703;SDS011;3894;49.700;10.770;2023-07-16T01:02:56;5.85;;;2.58;;
7703;SDS011;3894;49.700;10.770;2023-07-16T01:05:22;6.65;;;2.65;;
7703;SDS011;3894;49.700;10.770;2023-07-16T01:07:53;7.47;;;2.30;;
7703;SDS011;3894;49.700;10.770;2023-07-16T01:10:27;6.00;;;2.15;;
7703;SDS011;3894;49.700;10.770;2023-07-16T01:12:54;6.65;;;1.85;;
7703;SDS011;3894;49.700;10.770;2023-07-16T01:15:21;6.80;;;2.17;;
7703;SDS011;3894;49.700;10.770;2023-07-16T01:17:46;5.30;;;2.00;;
7703;SDS011;3894;49.700;10.770;2023-07-16T01:20:12;5.65;;;1.88;;
7703;SDS011;3894;49.700;10.770;2023-07-16T01:28:16;5.43;;;1.83;;
7703;SDS011;3894;49.700;10.770;2023-07-16T01:30:59;4.78;;;1.60;;
7703;SDS011;3894;49.700;10.770;2023-07-16T01:33:26;4.53;;;1.58;;
7703;SDS011;3894;49.700;10.770;2023-07-16T01:35:51;5.70;;;1.50;;
7703;SDS011;3894;49.700;10.770;2023-07-16T01:38:18;5.32;;;1.52;;
7703;SDS011;3894;49.700;10.770;2023-07-16T01:40:45;4.90;;;1.60;;
7703;SDS011;3894;49.700;10.770;2023-07-16T01:43:11;5.28;;;1.73;;
7703;SDS011;3894;49.700;10.770;2023-07-16T01:45:37;5.43;;;1.80;;
7703;SDS011;3894;49.700;10.770;2023-07-16T01:48:06;4.95;;;1.60;;
7703;SDS011;3894;49.700;10.770;2023-07-16T01:50:42;7.15;;;1.75;;
7703;SDS011;3894;49.700;10.770;2023-07-16T01:53:08;6.07;;;2.03;;
7703;SDS011;3894;49.700;10.770;2023-07-16T01:55:33;6.43;;;1.63;;
7703;SDS011;3894;49.700;10.770;2023-07-16T01:57:59;5.47;;;1.48;;
7703;SDS011;3894;49.700;10.770;2023-07-16T02:00:24;5.13;;;1.35;;
7703;SDS011;3894;49.700;10.770;2023-07-16T02:02:50;5.93;;;1.27;;
7703;SDS011;3894;49.700;10.770;2023-07-16T02:05:16;4.85;;;1.38;;
7703;SDS011;3894;49.700;10.770;2023-07-16T02:07:41;5.05;;;1.73;;
7703;SDS011;3894;49.700;10.770;2023-07-16T02:10:07;5.22;;;1.83;;
7703;SDS011;3894;49.700;10.770;2023-07-16T02:12:33;5.53;;;1.42;;
7703;SDS011;3894;49.700;10.770;2023-07-16T02:14:58;5.30;;;1.45;;
7703;SDS011;3894;49.700;10.770;2023-07-16T02:17:24;4.90;;;1.50;;
7703;SDS011;3894;49.700;10.770;2023-07-16T02:19:49;5.55;;;1.77;;
7703;SDS011;3894;49.700;10.770;2023-07-16T02:22:15;7.47;;;1.83;;
7703;SDS011;3894;49.700;10.770;2023-07-16T02:24:40;4.95;;;1.60;;
7703;SDS011;3894;49.700;10.770;2023-07-16T02:27:06;5.32;;;1.70;;
7703;SDS011;3894;49.700;10.770;2023-07-16T02:29:31;4.60;;;1.48;;
7703;SDS011;3894;49.700;10.770;2023-07-16T02:31:57;4.85;;;1.73;;
7703;SDS011;3894;49.700;10.770;2023-07-16T02:34:23;5.40;;;1.70;;
7703;SDS011;3894;49.700;10.770;2023-07-16T02:36:48;7.85;;;1.95;;
7703;SDS011;3894;49.700;10.770;2023-07-16T02:39:14;4.35;;;1.50;;
7703;SDS011;3894;49.700;10.770;2023-07-16T02:41:40;4.95;;;1.80;;
7703;SDS011;3894;49.700;10.770;2023-07-16T02:44:05;5.60;;;1.60;;
7703;SDS011;3894;49.700;10.770;2023-07-16T02:46:31;4.85;;;1.70;;
7703;SDS011;3894;49.700;10.770;2023-07-16T02:48:57;7.80;;;1.80;;
7703;SDS011;3894;49.700;10.770;2023-07-16T02:51:23;5.70;;;2.03;;
7703;SDS011;3894;49.700;10.770;2023-07-16T02:53:49;5.95;;;2.13;;
7703;SDS011;3894;49.700;10.770;2023-07-16T02:56:15;6.22;;;1.42;;
7703;SDS011;3894;49.700;10.770;2023-07-16T02:58:41;5.70;;;1.77;;
7703;SDS011;3894;49.700;10.770;2023-07-16T03:01:07;5.22;;;1.83;;
7703;SDS011;3894;49.700;10.770;2023-07-16T03:03:32;6.18;;;1.77;;
7703;SDS011;3894;49.700;10.770;2023-07-16T03:05:58;4.20;;;1.50;;
7703;SDS011;3894;49.700;10.770;2023-07-16T03:08:23;6.60;;;1.73;;
7703;SDS011;3894;49.700;10.770;2023-07-16T03:10:51;5.90;;;1.65;;
7703;SDS011;3894;49.700;10.770;2023-07-16T03:13:16;4.47;;;1.00;;
7703;SDS011;3894;49.700;10.770;2023-07-16T03:15:42;4.18;;;1.10;;
7703;SDS011;3894;49.700;10.770;2023-07-16T03:18:08;5.28;;;1.02;;
7703;SDS011;3894;49.700;10.770;2023-07-16T03:20:33;4.10;;;1.42;;
7703;SDS011;3894;49.700;10.770;2023-07-16T03:22:59;3.70;;;0.80;;
7703;SDS011;3894;49.700;10.770;2023-07-16T03:25:24;4.53;;;0.95;;
7703;SDS011;3894;49.700;10.770;2023-07-16T03:27:50;4.55;;;1.58;;
7703;SDS011;3894;49.700;10.770;2023-07-16T03:30:15;4.07;;;1.10;;
7703;SDS011;3894;49.700;10.770;2023-07-16T03:32:41;3.80;;;1.23;;
7703;SDS011;3894;49.700;10.770;2023-07-16T03:35:06;3.25;;;0.80;;
7703;SDS011;3894;49.700;10.770;2023-07-16T03:37:32;5.82;;;0.80;;
7703;SDS011;3894;49.700;10.770;2023-07-16T03:40:11;3.90;;;0.90;;
7703;SDS011;3894;49.700;10.770;2023-07-16T03:42:40;5.07;;;0.93;;
7703;SDS011;3894;49.700;10.770;2023-07-16T03:45:06;3.90;;;0.80;;
7703;SDS011;3894;49.700;10.770;2023-07-16T03:47:33;3.38;;;0.90;;
7703;SDS011;3894;49.700;10.770;2023-07-16T03:49:58;2.30;;;0.40;;
7703;SDS011;3894;49.700;10.770;2023-07-16T03:52:24;3.55;;;0.70;;
7703;SDS011;3894;49.700;10.770;2023-07-16T03:54:51;3.25;;;0.52;;
7703;SDS011;3894;49.700;10.770;2023-07-16T03:57:16;2.67;;;0.50;;
7703;SDS011;3894;49.700;10.770;2023-07-16T03:59:42;4.28;;;0.50;;
7703;SDS011;3894;49.700;10.770;2023-07-16T04:02:08;3.20;;;0.40;;
7703;SDS011;3894;49.700;10.770;2023-07-16T04:04:35;6.72;;;1.00;;
7703;SDS011;3894;49.700;10.770;2023-07-16T04:07:00;3.65;;;0.60;;
7703;SDS011;3894;49.700;10.770;2023-07-16T04:09:26;3.30;;;0.70;;
7703;SDS011;3894;49.700;10.770;2023-07-16T04:11:52;4.32;;;0.80;;
7703;SDS011;3894;49.700;10.770;2023-07-16T04:14:18;3.08;;;0.65;;
7703;SDS011;3894;49.700;10.770;2023-07-16T04:16:43;3.40;;;0.55;;
7703;SDS011;3894;49.700;10.770;2023-07-16T04:19:09;3.90;;;0.75;;
7703;SDS011;3894;49.700;10.770;2023-07-16T04:21:35;2.88;;;0.45;;
7703;SDS011;3894;49.700;10.770;2023-07-16T04:24:01;4.32;;;1.73;;
7703;SDS011;3894;49.700;10.770;2023-07-16T04:26:27;3.67;;;0.60;;
7703;SDS011;3894;49.700;10.770;2023-07-16T04:28:53;3.65;;;0.50;;
7703;SDS011;3894;49.700;10.770;2023-07-16T04:31:18;7.20;;;0.70;;
7703;SDS011;3894;49.700;10.770;2023-07-16T04:33:44;3.90;;;0.38;;
7703;SDS011;3894;49.700;10.770;2023-07-16T04:36:10;3.63;;;0.50;;
7703;SDS011;3894;49.700;10.770;2023-07-16T04:38:35;3.55;;;0.52;;
7703;SDS011;3894;49.700;10.770;2023-07-16T04:41:01;4.00;;;0.60;;
7703;SDS011;3894;49.700;10.770;2023-07-16T04:43:26;4.03;;;0.43;;
7703;SDS011;3894;49.700;10.770;2023-07-16T04:45:52;3.10;;;0.45;;
7703;SDS011;3894;49.700;10.770;2023-07-16T04:48:17;6.32;;;0.73;;
7703;SDS011;3894;49.700;10.770;2023-07-16T04:50:43;3.42;;;0.85;;
7703;SDS011;3894;49.700;10.770;2023-07-16T04:53:08;3.90;;;0.70;;
7703;SDS011;3894;49.700;10.770;2023-07-16T04:55:38;3.80;;;0.63;;
7703;SDS011;3894;49.700;10.770;2023-07-16T04:58:04;3.03;;;0.68;;
7703;SDS011;3894;49.700;10.770;2023-07-16T05:00:31;3.55;;;0.60;;
7703;SDS011;3894;49.700;10.770;2023-07-16T05:02:58;4.25;;;0.95;;
7703;SDS011;3894;49.700;10.770;2023-07-16T05:05:23;4.95;;;0.80;;
7703;SDS011;3894;49.700;10.770;2023-07-16T05:07:49;4.03;;;0.95;;
7703;SDS011;3894;49.700;10.770;2023-07-16T05:10:14;5.75;;;0.70;;
7703;SDS011;3894;49.700;10.770;2023-07-16T05:12:40;4.30;;;0.70;;
7703;SDS011;3894;49.700;10.770;2023-07-16T05:15:06;6.03;;;0.82;;
7703;SDS011;3894;49.700;10.770;2023-07-16T05:17:32;4.28;;;0.55;;
7703;SDS011;3894;49.700;10.770;2023-07-16T05:19:57;10.10;;;1.05;;
7703;SDS011;3894;49.700;10.770;2023-07-16T05:22:23;4.13;;;1.52;;
7703;SDS011;3894;49.700;10.770;2023-07-16T05:24:48;4.15;;;0.57;;
7703;SDS011;3894;49.700;10.770;2023-07-16T05:27:14;6.13;;;0.68;;
7703;SDS011;3894;49.700;10.770;2023-07-16T05:29:40;6.40;;;0.82;;
7703;SDS011;3894;49.700;10.770;2023-07-16T05:32:05;8.90;;;1.02;;
7703;SDS011;3894;49.700;10.770;2023-07-16T05:34:31;4.43;;;0.82;;
7703;SDS011;3894;49.700;10.770;2023-07-16T05:36:57;4.55;;;0.75;;
7703;SDS011;3894;49.700;10.770;2023-07-16T05:39:22;5.78;;;1.00;;
7703;SDS011;3894;49.700;10.770;2023-07-16T05:41:48;6.30;;;0.60;;
7703;SDS011;3894;49.700;10.770;2023-07-16T05:44:13;3.58;;;0.50;;
7703;SDS011;3894;49.700;10.770;2023-07-16T05:46:39;4.43;;;0.70;;
7703;SDS011;3894;49.700;10.770;2023-07-16T05:49:04;4.22;;;0.70;;
7703;SDS011;3894;49.700;10.770;2023-07-16T05:51:30;4.57;;;0.80;;
7703;SDS011;3894;49.700;10.770;2023-07-16T05:53:56;4.80;;;0.63;;
7703;SDS011;3894;49.700;10.770;2023-07-16T05:56:22;5.95;;;0.90;;
7703;SDS011;3894;49.700;10.770;2023-07-16T05:58:47;6.60;;;0.73;;
7703;SDS011;3894;49.700;10.770;2023-07-16T06:01:13;4.15;;;0.70;;
7703;SDS011;3894;49.700;10.770;2023-07-16T06:03:38;5.15;;;0.90;;
7703;SDS011;3894;49.700;10.770;2023-07-16T06:06:04;5.97;;;0.88;;
7703;SDS011;3894;49.700;10.770;2023-07-16T06:08:30;3.67;;;0.80;;
7703;SDS011;3894;49.700;10.770;2023-07-16T06:10:55;4.82;;;0.90;;
7703;SDS011;3894;49.700;10.770;2023-07-16T06:13:21;6.43;;;0.70;;
7703;SDS011;3894;49.700;10.770;2023-07-16T06:15:47;5.72;;;0.77;;
7703;SDS011;3894;49.700;10.770;2023-07-16T06:18:12;8.43;;;0.80;;
7703;SDS011;3894;49.700;10.770;2023-07-16T06:20:38;7.68;;;0.80;;
7703;SDS011;3894;49.700;10.770;2023-07-16T06:23:04;4.97;;;0.80;;
7703;SDS011;3894;49.700;10.770;2023-07-16T06:25:29;5.00;;;0.82;;
7703;SDS011;3894;49.700;10.770;2023-07-16T06:27:55;4.95;;;0.80;;
7703;SDS011;3894;49.700;10.770;2023-07-16T06:30:20;5.30;;;1.10;;
7703;SDS011;3894;49.700;10.770;2023-07-16T06:32:47;4.90;;;0.70;;
7703;SDS011;3894;49.700;10.770;2023-07-16T06:35:12;7.78;;;0.93;;
7703;SDS011;3894;49.700;10.770;2023-07-16T06:37:38;5.50;;;1.10;;
7703;SDS011;3894;49.700;10.770;2023-07-16T06:40:03;5.25;;;0.95;;
7703;SDS011;3894;49.700;10.770;2023-07-16T06:42:30;5.35;;;0.82;;
7703;SDS011;3894;49.700;10.770;2023-07-16T06:44:56;4.45;;;1.25;;
7703;SDS011;3894;49.700;10.770;2023-07-16T06:47:21;6.07;;;1.10;;
7703;SDS011;3894;49.700;10.770;2023-07-16T06:49:47;4.72;;;0.70;;
7703;SDS011;3894;49.700;10.770;2023-07-16T06:52:22;5.18;;;0.70;;
7703;SDS011;3894;49.700;10.770;2023-07-16T06:54:49;4.68;;;0.82;;
7703;SDS011;3894;49.700;10.770;2023-07-16T06:57:15;5.82;;;0.60;;
7703;SDS011;3894;49.700;10.770;2023-07-16T06:59:40;6.25;;;1.20;;
7703;SDS011;3894;49.700;10.770;2023-07-16T07:02:06;5.57;;;0.85;;
7703;SDS011;3894;49.700;10.770;2023-07-16T07:04:32;7.75;;;1.77;;
7703;SDS011;3894;49.700;10.770;2023-07-16T07:06:57;5.30;;;0.88;;
7703;SDS011;3894;49.700;10.770;2023-07-16T07:09:23;7.32;;;1.10;;
7703;SDS011;3894;49.700;10.770;2023-07-16T07:11:48;5.18;;;0.95;;
7703;SDS011;3894;49.700;10.770;2023-07-16T07:14:14;5.57;;;1.17;;
7703;SDS011;3894;49.700;10.770;2023-07-16T07:16:39;4.53;;;0.82;;
7703;SDS011;3894;49.700;10.770;2023-07-16T07:19:05;5.32;;;0.98;;
7703;SDS011;3894;49.700;10.770;2023-07-16T07:21:31;6.75;;;1.10;;
7703;SDS011;3894;49.700;10.770;2023-07-16T07:23:56;7.03;;;0.77;;
7703;SDS011;3894;49.700;10.770;2023-07-16T07:26:22;4.53;;;1.42;;
7703;SDS011;3894;49.700;10.770;2023-07-16T07:28:48;4.80;;;0.85;;
7703;SDS011;3894;49.700;10.770;2023-07-16T07:31:14;7.88;;;1.10;;
7703;SDS011;3894;49.700;10.770;2023-07-16T07:33:39;5.90;;;1.00;;
7703;SDS011;3894;49.700;10.770;2023-07-16T07:36:05;5.55;;;1.13;;
7703;SDS011;3894;49.700;10.770;2023-07-16T07:38:31;5.68;;;0.98;;
7703;SDS011;3894;49.700;10.770;2023-07-16T07:40:56;4.25;;;0.77;;
7703;SDS011;3894;49.700;10.770;2023-07-16T07:43:22;6.55;;;1.02;;
7703;SDS011;3894;49.700;10.770;2023-07-16T07:45:48;4.35;;;0.80;;
7703;SDS011;3894;49.700;10.770;2023-07-16T07:48:13;5.88;;;1.05;;
7703;SDS011;3894;49.700;10.770;2023-07-16T07:50:39;4.10;;;0.90;;
7703;SDS011;3894;49.700;10.770;2023-07-16T07:53:05;4.88;;;0.70;;
7703;SDS011;3894;49.700;10.770;2023-07-16T07:55:31;5.38;;;1.27;;
7703;SDS011;3894;49.700;10.770;2023-07-16T07:57:56;6.35;;;1.02;;
7703;SDS011;3894;49.700;10.770;2023-07-16T08:00:22;5.40;;;1.15;;
7703;SDS011;3894;49.700;10.770;2023-07-16T08:02:47;6.32;;;1.00;;
7703;SDS011;3894;49.700;10.770;2023-07-16T08:05:13;4.82;;;1.02;;
7703;SDS011;3894;49.700;10.770;2023-07-16T08:07:38;5.25;;;1.02;;
7703;SDS011;3894;49.700;10.770;2023-07-16T08:10:04;5.72;;;1.35;;
7703;SDS011;3894;49.700;10.770;2023-07-16T08:12:30;4.10;;;0.85;;
7703;SDS011;3894;49.700;10.770;2023-07-16T08:14:56;4.60;;;0.80;;
7703;SDS011;3894;49.700;10.770;2023-07-16T08:17:21;4.03;;;0.65;;
7703;SDS011;3894;49.700;10.770;2023-07-16T08:19:47;5.72;;;1.20;;
7703;SDS011;3894;49.700;10.770;2023-07-16T08:22:12;5.22;;;1.00;;
7703;SDS011;3894;49.700;10.770;2023-07-16T08:24:38;7.82;;;0.70;;
7703;SDS011;3894;49.700;10.770;2023-07-16T08:27:04;5.38;;;1.10;;
7703;SDS011;3894;49.700;10.770;2023-07-16T08:29:29;4.72;;;0.65;;
7703;SDS011;3894;49.700;10.770;2023-07-16T08:31:55;8.18;;;1.02;;
7703;SDS011;3894;49.700;10.770;2023-07-16T08:34:20;5.10;;;0.85;;
7703;SDS011;3894;49.700;10.770;2023-07-16T08:36:46;6.72;;;1.25;;
7703;SDS011;3894;49.700;10.770;2023-07-16T08:39:12;3.90;;;0.77;;
7703;SDS011;3894;49.700;10.770;2023-07-16T08:41:38;4.05;;;0.85;;
7703;SDS011;3894;49.700;10.770;2023-07-16T08:44:04;3.75;;;0.40;;
7703;SDS011;3894;49.700;10.770;2023-07-16T08:46:30;4.43;;;0.70;;
7703;SDS011;3894;49.700;10.770;2023-07-16T08:48:56;4.80;;;0.75;;
7703;SDS011;3894;49.700;10.770;2023-07-16T08:51:22;5.00;;;0.65;;
7703;SDS011;3894;49.700;10.770;2023-07-16T08:53:49;3.92;;;1.02;;
7703;SDS011;3894;49.700;10.770;2023-07-16T08:56:15;5.28;;;0.80;;
7703;SDS011;3894;49.700;10.770;2023-07-16T08:58:41;5.13;;;0.75;;
7703;SDS011;3894;49.700;10.770;2023-07-16T09:01:09;3.95;;;0.65;;
7703;SDS011;3894;49.700;10.770;2023-07-16T09:03:35;3.40;;;0.52;;
7703;SDS011;3894;49.700;10.770;2023-07-16T09:06:01;5.45;;;0.73;;
7703;SDS011;3894;49.700;10.770;2023-07-16T09:08:29;5.30;;;0.75;;
7703;SDS011;3894;49.700;10.770;2023-07-16T09:10:55;3.83;;;0.70;;
7703;SDS011;3894;49.700;10.770;2023-07-16T09:13:21;4.43;;;0.75;;
7703;SDS011;3894;49.700;10.770;2023-07-16T09:15:51;6.03;;;0.90;;
7703;SDS011;3894;49.700;10.770;2023-07-16T09:18:21;4.68;;;0.77;;
7703;SDS011;3894;49.700;10.770;2023-07-16T09:20:56;5.70;;;0.82;;
7703;SDS011;3894;49.700;10.770;2023-07-16T09:23:23;5.85;;;1.00;;
7703;SDS011;3894;49.700;10.770;2023-07-16T09:25:51;4.57;;;0.95;;
7703;SDS011;3894;49.700;10.770;2023-07-16T09:28:18;6.57;;;1.15;;
7703;SDS011;3894;49.700;10.770;2023-07-16T09:30:45;3.30;;;0.65;;
7703;SDS011;3894;49.700;10.770;2023-07-16T09:33:16;6.13;;;1.15;;
7703;SDS011;3894;49.700;10.770;2023-07-16T09:35:43;4.07;;;0.80;;
7703;SDS011;3894;49.700;10.770;2023-07-16T09:38:09;4.57;;;0.70;;
7703;SDS011;3894;49.700;10.770;2023-07-16T09:43:03;5.50;;;1.05;;
7703;SDS011;3894;49.700;10.770;2023-07-16T09:45:29;6.95;;;1.30;;
7703;SDS011;3894;49.700;10.770;2023-07-16T09:47:55;4.35;;;0.63;;
7703;SDS011;3894;49.700;10.770;2023-07-16T09:50:24;4.20;;;0.80;;
7703;SDS011;3894;49.700;10.770;2023-07-16T09:52:53;3.80;;;0.90;;
7703;SDS011;3894;49.700;10.770;2023-07-16T09:57:47;6.85;;;1.50;;
7703;SDS011;3894;49.700;10.770;2023-07-16T10:00:13;4.95;;;1.08;;
7703;SDS011;3894;49.700;10.770;2023-07-16T10:02:41;5.57;;;1.35;;
7703;SDS011;3894;49.700;10.770;2023-07-16T10:07:51;5.00;;;1.15;;
7703;SDS011;3894;49.700;10.770;2023-07-16T10:10:18;5.28;;;1.20;;
7703;SDS011;3894;49.700;10.770;2023-07-16T10:12:57;5.85;;;1.00;;
7703;SDS011;3894;49.700;10.770;2023-07-16T10:15:30;5.03;;;1.40;;
7703;SDS011;3894;49.700;10.770;2023-07-16T10:17:56;6.85;;;0.80;;
7703;SDS011;3894;49.700;10.770;2023-07-16T10:20:32;4.78;;;0.88;;
7703;SDS011;3894;49.700;10.770;2023-07-16T10:23:09;6.13;;;1.00;;
7703;SDS011;3894;49.700;10.770;2023-07-16T10:25:40;4.85;;;1.00;;
7703;SDS011;3894;49.700;10.770;2023-07-16T10:28:06;4.43;;;1.42;;
7703;SDS011;3894;49.700;10.770;2023-07-16T10:30:32;4.20;;;1.15;;
7703;SDS011;3894;49.700;10.770;2023-07-16T10:33:02;7.50;;;1.30;;
7703;SDS011;3894;49.700;10.770;2023-07-16T10:35:35;5.82;;;1.15;;
7703;SDS011;3894;49.700;10.770;2023-07-16T10:38:06;5.25;;;1.13;;
7703;SDS011;3894;49.700;10.770;2023-07-16T10:40:32;4.90;;;0.90;;
7703;SDS011;3894;49.700;10.770;2023-07-16T10:42:57;4.78;;;1.10;;
7703;SDS011;3894;49.700;10.770;2023-07-16T10:45:23;5.13;;;1.00;;
7703;SDS011;3894;49.700;10.770;2023-07-16T10:47:54;5.50;;;1.02;;
7703;SDS011;3894;49.700;10.770;2023-07-16T10:50:20;6.05;;;1.05;;
7703;SDS011;3894;49.700;10.770;2023-07-16T10:52:52;4.28;;;0.90;;
7703;SDS011;3894;49.700;10.770;2023-07-16T10:55:21;5.93;;;1.15;;
7703;SDS011;3894;49.700;10.770;2023-07-16T10:57:48;6.40;;;0.95;;
7703;SDS011;3894;49.700;10.770;2023-07-16T11:00:15;4.55;;;0.70;;
7703;SDS011;3894;49.700;10.770;2023-07-16T11:05:11;5.38;;;1.10;;
7703;SDS011;3894;49.700;10.770;2023-07-16T11:07:37;5.32;;;0.77;;
7703;SDS011;3894;49.700;10.770;2023-07-16T11:10:03;3.97;;;0.85;;
7703;SDS011;3894;49.700;10.770;2023-07-16T11:12:29;5.10;;;0.63;;
7703;SDS011;3894;49.700;10.770;2023-07-16T11:14:55;4.45;;;0.60;;
7703;SDS011;3894;49.700;10.770;2023-07-16T11:17:22;6.68;;;0.93;;
7703;SDS011;3894;49.700;10.770;2023-07-16T11:19:50;5.30;;;0.90;;
7703;SDS011;3894;49.700;10.770;2023-07-16T11:22:16;3.80;;;0.63;;
7703;SDS011;3894;49.700;10.770;2023-07-16T11:24:49;4.97;;;0.90;;
7703;SDS011;3894;49.700;10.770;2023-07-16T11:27:16;6.38;;;0.98;;
7703;SDS011;3894;49.700;10.770;2023-07-16T11:29:47;4.57;;;0.80;;
7703;SDS011;3894;49.700;10.770;2023-07-16T11:35:17;3.67;;;0.70;;
7703;SDS011;3894;49.700;10.770;2023-07-16T11:37:44;3.00;;;0.52;;
7703;SDS011;3894;49.700;10.770;2023-07-16T11:40:14;4.13;;;0.75;;
7703;SDS011;3894;49.700;10.770;2023-07-16T11:42:41;4.43;;;0.77;;
7703;SDS011;3894;49.700;10.770;2023-07-16T11:47:43;3.97;;;1.00;;
7703;SDS011;3894;49.700;10.770;2023-07-16T11:50:09;4.70;;;0.70;;
7703;SDS011;3894;49.700;10.770;2023-07-16T11:52:35;6.40;;;0.85;;
7703;SDS011;3894;49.700;10.770;2023-07-16T11:55:00;5.10;;;1.10;;
7703;SDS011;3894;49.700;10.770;2023-07-16T11:57:26;4.57;;;0.68;;
7703;SDS011;3894;49.700;10.770;2023-07-16T11:59:52;4.40;;;0.73;;
7703;SDS011;3894;49.700;10.770;2023-07-16T12:02:19;3.30;;;0.60;;
7703;SDS011;3894;49.700;10.770;2023-07-16T12:04:45;4.82;;;0.93;;
7703;SDS011;3894;49.700;10.770;2023-07-16T12:07:11;4.03;;;0.60;;
7703;SDS011;3894;49.700;10.770;2023-07-16T12:09:36;5.03;;;1.02;;
7703;SDS011;3894;49.700;10.770;2023-07-16T12:12:02;4.15;;;0.88;;
7703;SDS011;3894;49.700;10.770;2023-07-16T12:14:28;3.83;;;0.93;;
7703;SDS011;3894;49.700;10.770;2023-07-16T12:16:54;5.50;;;0.68;;
7703;SDS011;3894;49.700;10.770;2023-07-16T12:19:20;4.28;;;1.40;;
7703;SDS011;3894;49.700;10.770;2023-07-16T12:21:45;4.47;;;0.90;;
7703;SDS011;3894;49.700;10.770;2023-07-16T12:24:11;4.53;;;0.80;;
7703;SDS011;3894;49.700;10.770;2023-07-16T12:26:36;5.40;;;0.98;;
7703;SDS011;3894;49.700;10.770;2023-07-16T12:29:02;3.85;;;1.08;;
7703;SDS011;3894;49.700;10.770;2023-07-16T12:31:29;3.97;;;0.70;;
7703;SDS011;3894;49.700;10.770;2023-07-16T12:33:58;4.90;;;0.68;;
7703;SDS011;3894;49.700;10.770;2023-07-16T12:36:24;6.90;;;0.63;;
7703;SDS011;3894;49.700;10.770;2023-07-16T12:38:50;4.25;;;0.77;;
7703;SDS011;3894;49.700;10.770;2023-07-16T12:41:15;4.13;;;0.85;;
7703;SDS011;3894;49.700;10.770;2023-07-16T12:43:41;6.05;;;0.80;;
7703;SDS011;3894;49.700;10.770;2023-07-16T12:46:07;5.68;;;1.00;;
7703;SDS011;3894;49.700;10.770;2023-07-16T12:48:33;5.88;;;0.82;;
7703;SDS011;3894;49.700;10.770;2023-07-16T12:50:58;4.43;;;0.77;;
7703;SDS011;3894;49.700;10.770;2023-07-16T12:53:25;3.90;;;0.70;;
7703;SDS011;3894;49.700;10.770;2023-07-16T12:55:51;4.57;;;0.80;;
7703;SDS011;3894;49.700;10.770;2023-07-16T12:58:17;4.13;;;0.70;;
7703;SDS011;3894;49.700;10.770;2023-07-16T13:00:43;5.53;;;0.80;;
7703;SDS011;3894;49.700;10.770;2023-07-16T13:03:08;4.93;;;0.70;;
7703;SDS011;3894;49.700;10.770;2023-07-16T13:05:36;5.97;;;0.88;;
7703;SDS011;3894;49.700;10.770;2023-07-16T13:08:03;5.43;;;1.08;;
7703;SDS011;3894;49.700;10.770;2023-07-16T13:10:29;4.65;;;1.00;;
7703;SDS011;3894;49.700;10.770;2023-07-16T13:12:55;3.83;;;0.93;;
7703;SDS011;3894;49.700;10.770;2023-07-16T13:15:20;5.03;;;0.85;;
7703;SDS011;3894;49.700;10.770;2023-07-16T13:17:46;5.05;;;0.95;;
7703;SDS011;3894;49.700;10.770;2023-07-16T13:20:12;4.55;;;0.90;;
7703;SDS011;3894;49.700;10.770;2023-07-16T13:22:38;5.25;;;1.00;;
7703;SDS011;3894;49.700;10.770;2023-07-16T13:25:04;4.70;;;0.82;;
7703;SDS011;3894;49.700;10.770;2023-07-16T13:27:30;5.72;;;1.13;;
7703;SDS011;3894;49.700;10.770;2023-07-16T13:29:56;5.63;;;0.85;;
7703;SDS011;3894;49.700;10.770;2023-07-16T13:32:21;4.20;;;0.80;;
7703;SDS011;3894;49.700;10.770;2023-07-16T13:34:47;4.57;;;0.90;;
7703;SDS011;3894;49.700;10.770;2023-07-16T13:37:13;4.18;;;0.85;;
7703;SDS011;3894;49.700;10.770;2023-07-16T13:39:39;4.65;;;0.77;;
7703;SDS011;3894;49.700;10.770;2023-07-16T13:42:05;6.07;;;1.10;;
7703;SDS011;3894;49.700;10.770;2023-07-16T13:44:31;6.28;;;1.10;;
7703;SDS011;3894;49.700;10.770;2023-07-16T13:46:57;5.60;;;1.10;;
7703;SDS011;3894;49.700;10.770;2023-07-16T13:49:23;4.68;;;0.80;;
7703;SDS011;3894;49.700;10.770;2023-07-16T13:51:48;5.45;;;0.88;;
7703;SDS011;3894;49.700;10.770;2023-07-16T13:54:14;4.75;;;0.60;;
7703;SDS011;3894;49.700;10.770;2023-07-16T13:56:40;4.45;;;0.70;;
7703;SDS011;3894;49.700;10.770;2023-07-16T13:59:05;5.07;;;0.70;;
7703;SDS011;3894;49.700;10.770;2023-07-16T14:01:31;4.60;;;0.73;;
7703;SDS011;3894;49.700;10.770;2023-07-16T14:03:56;6.53;;;0.80;;
7703;SDS011;3894;49.700;10.770;2023-07-16T14:06:22;5.57;;;1.42;;
7703;SDS011;3894;49.700;10.770;2023-07-16T14:08:47;4.75;;;1.00;;
7703;SDS011;3894;49.700;10.770;2023-07-16T14:11:13;5.35;;;1.30;;
7703;SDS011;3894;49.700;10.770;2023-07-16T14:13:40;4.68;;;1.10;;
7703;SDS011;3894;49.700;10.770;2023-07-16T14:16:06;3.10;;;0.52;;
7703;SDS011;3894;49.700;10.770;2023-07-16T14:18:31;4.53;;;0.80;;
7703;SDS011;3894;49.700;10.770;2023-07-16T14:20:57;5.07;;;1.00;;
7703;SDS011;3894;49.700;10.770;2023-07-16T14:23:23;5.53;;;0.93;;
7703;SDS011;3894;49.700;10.770;2023-07-16T14:25:48;4.95;;;1.13;;
7703;SDS011;3894;49.700;10.770;2023-07-16T14:28:14;5.25;;;1.00;;
7703;SDS011;3894;49.700;10.770;2023-07-16T14:30:40;5.03;;;1.02;;
7703;SDS011;3894;49.700;10.770;2023-07-16T14:33:05;4.68;;;1.15;;
7703;SDS011;3894;49.700;10.770;2023-07-16T14:35:32;14.18;;;4.30;;
7703;SDS011;3894;49.700;10.770;2023-07-16T14:40:24;5.95;;;1.25;;
7703;SDS011;3894;49.700;10.770;2023-07-16T14:45:16;5.45;;;0.73;;
7703;SDS011;3894;49.700;10.770;2023-07-16T14:47:42;4.38;;;1.05;;
7703;SDS011;3894;49.700;10.770;2023-07-16T14:50:08;4.65;;;1.15;;
7703;SDS011;3894;49.700;10.770;2023-07-16T14:52:34;7.47;;;1.55;;
7703;SDS011;3894;49.700;10.770;2023-07-16T14:57:26;5.68;;;1.40;;
7703;SDS011;3894;49.700;10.770;2023-07-16T14:59:52;6.63;;;1.42;;
7703;SDS011;3894;49.700;10.770;2023-07-16T15:02:17;3.90;;;0.95;;
7703;SDS011;3894;49.700;10.770;2023-07-16T15:04:43;5.30;;;1.30;;
7703;SDS011;3894;49.700;10.770;2023-07-16T15:07:09;4.57;;;0.93;;
7703;SDS011;3894;49.700;10.770;2023-07-16T15:09:34;5.53;;;0.90;;
7703;SDS011;3894;49.700;10.770;2023-07-16T15:12:02;6.20;;;2.10;;
7703;SDS011;3894;49.700;10.770;2023-07-16T15:14:29;4.25;;;1.20;;
7703;SDS011;3894;49.700;10.770;2023-07-16T15:16:55;4.57;;;1.10;;
7703;SDS011;3894;49.700;10.770;2023-07-16T15:19:20;5.07;;;1.38;;
7703;SDS011;3894;49.700;10.770;2023-07-16T15:21:46;4.10;;;1.00;;
7703;SDS011;3894;49.700;10.770;2023-07-16T15:24:11;5.95;;;1.08;;